sensor_id;sensor_type;location;lat;lon;timestamp;P1;durP1;ratioP1;P2;durP2;ratioP2
51616;SDS011;37697;52.588;13.394;2023-03-25T00:04:30;5.20;;;2.10;;
51616;SDS011;37697;52.588;13.394;2023-03-25T00:09:38;7.00;;;2.20;;
51616;SDS011;37697;52.588;13.394;2023-03-25T00:14:43;5.70;;;2.40;;
51616;SDS011;37697;52.588;13.394;2023-03-25T00:19:57;3.80;;;1.90;;
51616;SDS011;37697;52.588;13.394;2023-03-25T00:25:09;3.10;;;1.50;;
51616;SDS011;37697;52.588;13.394;2023-03-25T00:30:20;2.40;;;1.50;;
51616;SDS011;37697;52.588;13.394;2023-03-25T00:35:26;4.90;;;1.70;;
51616;SDS011;37697;52.588;13.394;2023-03-25T00:40:32;3.80;;;1.70;;
51616;SDS011;37697;52.588;13.394;2023-03-25T00:45:37;4.10;;;1.50;;
51616;SDS011;37697;52.588;13.394;2023-03-25T00:50:43;4.80;;;1.80;;
51616;SDS011;37697;52.588;13.394;2023-03-25T00:55:48;2.70;;;1.50;;
51616;SDS011;37697;52.588;13.394;2023-03-25T01:00:54;3.50;;;1.50;;
51616;SDS011;37697;52.588;13.394;2023-03-25T01:06:00;4.30;;;1.60;;
51616;SDS011;37697;52.588;13.394;2023-03-25T01:11:13;4.40;;;1.60;;
51616;SDS011;37697;52.588;13.394;2023-03-25T01:16:22;5.00;;;1.50;;
51616;SDS011;37697;52.588;13.394;2023-03-25T01:21:28;2.60;;;1.20;;
51616;SDS011;37697;52.588;13.394;2023-03-25T01:26:38;3.40;;;1.30;;
51616;SDS011;37697;52.588;13.394;2023-03-25T01:31:46;3.70;;;1.50;;
51616;SDS011;37697;52.588;13.394;2023-03-25T01:36:52;2.40;;;1.40;;
51616;SDS011;37697;52.588;13.394;2023-03-25T01:41:58;4.80;;;1.60;;
51616;SDS011;37697;52.588;13.394;2023-03-25T01:47:04;3.10;;;1.40;;
51616;SDS011;37697;52.588;13.394;2023-03-25T01:52:11;4.00;;;1.50;;
51616;SDS011;37697;52.588;13.394;2023-03-25T01:57:20;3.10;;;1.30;;
51616;SDS011;37697;52.588;13.394;2023-03-25T02:02:27;3.70;;;1.50;;
51616;SDS011;37697;52.588;13.394;2023-03-25T02:07:40;3.50;;;1.60;;
51616;SDS011;37697;52.588;13.394;2023-03-25T02:12:50;3.70;;;1.40;;
51616;SDS011;37697;52.588;13.394;2023-03-25T02:18:00;3.20;;;1.30;;
51616;SDS011;37697;52.588;13.394;2023-03-25T02:23:19;4.90;;;1.60;;
51616;SDS011;37697;52.588;13.394;2023-03-25T02:28:52;3.70;;;1.40;;
51616;SDS011;37697;52.588;13.394;2023-03-25T02:34:12;4.80;;;1.40;;
51616;SDS011;37697;52.588;13.394;2023-03-25T02:39:27;3.50;;;1.30;;
51616;SDS011;37697;52.588;13.394;2023-03-25T02:44:41;3.80;;;1.30;;
51616;SDS011;37697;52.588;13.394;2023-03-25T02:49:53;2.10;;;1.10;;
51616;SDS011;37697;52.588;13.394;2023-03-25T02:55:02;3.90;;;1.30;;
51616;SDS011;37697;52.588;13.394;2023-03-25T03:00:13;2.80;;;1.40;;
51616;SDS011;37697;52.588;13.394;2023-03-25T03:10:31;4.20;;;1.20;;
51616;SDS011;37697;52.588;13.394;2023-03-25T03:15:48;3.10;;;1.20;;
51616;SDS011;37697;52.588;13.394;2023-03-25T03:21:04;3.30;;;1.30;;
51616;SDS011;37697;52.588;13.394;2023-03-25T03:26:18;2.70;;;1.00;;
51616;SDS011;37697;52.588;13.394;2023-03-25T03:31:30;4.60;;;1.10;;
51616;SDS011;37697;52.588;13.394;2023-03-25T03:37:02;3.10;;;1.50;;
51616;SDS011;37697;52.588;13.394;2023-03-25T03:42:11;5.10;;;1.20;;
51616;SDS011;37697;52.588;13.394;2023-03-25T03:47:22;1.20;;;0.80;;
51616;SDS011;37697;52.588;13.394;2023-03-25T03:52:32;3.20;;;0.90;;
51616;SDS011;37697;52.588;13.394;2023-03-25T03:57:41;4.00;;;1.20;;
51616;SDS011;37697;52.588;13.394;2023-03-25T04:02:51;3.20;;;1.00;;
51616;SDS011;37697;52.588;13.394;2023-03-25T04:08:02;1.30;;;0.80;;
51616;SDS011;37697;52.588;13.394;2023-03-25T04:13:15;3.60;;;0.90;;
51616;SDS011;37697;52.588;13.394;2023-03-25T04:18:22;3.60;;;0.90;;
51616;SDS011;37697;52.588;13.394;2023-03-25T04:23:27;1.80;;;0.90;;
51616;SDS011;37697;52.588;13.394;2023-03-25T04:28:34;2.30;;;0.90;;
51616;SDS011;37697;52.588;13.394;2023-03-25T04:33:39;3.00;;;1.00;;
51616;SDS011;37697;52.588;13.394;2023-03-25T04:38:49;3.20;;;1.40;;
51616;SDS011;37697;52.588;13.394;2023-03-25T04:43:56;2.70;;;1.00;;
51616;SDS011;37697;52.588;13.394;2023-03-25T04:49:01;4.80;;;1.10;;
51616;SDS011;37697;52.588;13.394;2023-03-25T04:54:08;3.00;;;1.10;;
51616;SDS011;37697;52.588;13.394;2023-03-25T04:59:14;3.00;;;1.10;;
51616;SDS011;37697;52.588;13.394;2023-03-25T05:04:20;4.30;;;1.00;;
51616;SDS011;37697;52.588;13.394;2023-03-25T05:09:27;3.70;;;1.00;;
51616;SDS011;37697;52.588;13.394;2023-03-25T05:14:33;3.60;;;1.10;;
51616;SDS011;37697;52.588;13.394;2023-03-25T05:19:38;4.40;;;1.10;;
51616;SDS011;37697;52.588;13.394;2023-03-25T05:24:47;2.60;;;0.70;;
51616;SDS011;37697;52.588;13.394;2023-03-25T05:29:56;2.20;;;0.80;;
51616;SDS011;37697;52.588;13.394;2023-03-25T05:35:02;3.40;;;1.00;;
51616;SDS011;37697;52.588;13.394;2023-03-25T05:40:09;3.10;;;1.00;;
51616;SDS011;37697;52.588;13.394;2023-03-25T05:45:18;2.10;;;0.70;;
51616;SDS011;37697;52.588;13.394;2023-03-25T05:50:24;1.60;;;0.90;;
51616;SDS011;37697;52.588;13.394;2023-03-25T05:55:31;2.70;;;0.70;;
51616;SDS011;37697;52.588;13.394;2023-03-25T06:00:41;3.80;;;0.80;;
51616;SDS011;37697;52.588;13.394;2023-03-25T06:05:47;2.40;;;0.80;;
51616;SDS011;37697;52.588;13.394;2023-03-25T06:10:52;3.70;;;0.90;;
51616;SDS011;37697;52.588;13.394;2023-03-25T06:16:01;2.20;;;0.80;;
51616;SDS011;37697;52.588;13.394;2023-03-25T06:21:09;2.20;;;0.70;;
51616;SDS011;37697;52.588;13.394;2023-03-25T06:26:14;1.70;;;0.80;;
51616;SDS011;37697;52.588;13.394;2023-03-25T06:31:20;1.30;;;0.60;;
51616;SDS011;37697;52.588;13.394;2023-03-25T06:36:30;3.40;;;0.90;;
51616;SDS011;37697;52.588;13.394;2023-03-25T06:41:37;3.30;;;0.80;;
51616;SDS011;37697;52.588;13.394;2023-03-25T06:46:42;2.40;;;0.70;;
51616;SDS011;37697;52.588;13.394;2023-03-25T06:51:48;2.20;;;0.60;;
51616;SDS011;37697;52.588;13.394;2023-03-25T06:56:53;3.50;;;0.90;;
51616;SDS011;37697;52.588;13.394;2023-03-25T07:01:59;2.70;;;0.70;;
51616;SDS011;37697;52.588;13.394;2023-03-25T07:07:04;1.70;;;0.50;;
51616;SDS011;37697;52.588;13.394;2023-03-25T07:12:10;4.90;;;1.00;;
51616;SDS011;37697;52.588;13.394;2023-03-25T07:17:15;2.40;;;0.70;;
51616;SDS011;37697;52.588;13.394;2023-03-25T07:22:21;3.30;;;0.70;;
51616;SDS011;37697;52.588;13.394;2023-03-25T07:27:26;1.70;;;0.60;;
51616;SDS011;37697;52.588;13.394;2023-03-25T07:32:31;3.40;;;0.70;;
51616;SDS011;37697;52.588;13.394;2023-03-25T07:37:37;1.80;;;0.80;;
51616;SDS011;37697;52.588;13.394;2023-03-25T07:42:43;4.80;;;0.90;;
51616;SDS011;37697;52.588;13.394;2023-03-25T07:47:49;3.40;;;1.00;;
51616;SDS011;37697;52.588;13.394;2023-03-25T07:52:56;1.70;;;0.80;;
51616;SDS011;37697;52.588;13.394;2023-03-25T07:58:02;2.30;;;0.90;;
51616;SDS011;37697;52.588;13.394;2023-03-25T08:03:07;1.70;;;0.90;;
51616;SDS011;37697;52.588;13.394;2023-03-25T08:08:15;3.00;;;0.70;;
51616;SDS011;37697;52.588;13.394;2023-03-25T08:13:20;2.10;;;0.70;;
51616;SDS011;37697;52.588;13.394;2023-03-25T08:18:26;2.80;;;1.10;;
51616;SDS011;37697;52.588;13.394;2023-03-25T08:23:31;2.50;;;0.80;;
51616;SDS011;37697;52.588;13.394;2023-03-25T08:28:39;2.90;;;0.90;;
51616;SDS011;37697;52.588;13.394;2023-03-25T08:33:45;4.50;;;1.20;;
51616;SDS011;37697;52.588;13.394;2023-03-25T08:38:50;4.20;;;0.70;;
51616;SDS011;37697;52.588;13.394;2023-03-25T08:43:56;3.80;;;1.00;;
51616;SDS011;37697;52.588;13.394;2023-03-25T08:49:01;4.20;;;1.00;;
51616;SDS011;37697;52.588;13.394;2023-03-25T08:54:06;2.40;;;1.00;;
51616;SDS011;37697;52.588;13.394;2023-03-25T08:59:12;3.00;;;1.00;;
51616;SDS011;37697;52.588;13.394;2023-03-25T09:04:17;2.90;;;0.80;;
51616;SDS011;37697;52.588;13.394;2023-03-25T09:09:23;3.80;;;0.90;;
51616;SDS011;37697;52.588;13.394;2023-03-25T09:14:28;2.00;;;0.70;;
51616;SDS011;37697;52.588;13.394;2023-03-25T09:19:34;1.40;;;0.70;;
51616;SDS011;37697;52.588;13.394;2023-03-25T09:24:41;3.90;;;0.90;;
51616;SDS011;37697;52.588;13.394;2023-03-25T09:29:46;1.30;;;0.60;;
51616;SDS011;37697;52.588;13.394;2023-03-25T09:34:52;1.30;;;0.60;;
51616;SDS011;37697;52.588;13.394;2023-03-25T09:39:57;2.30;;;0.70;;
51616;SDS011;37697;52.588;13.394;2023-03-25T09:45:05;2.20;;;0.90;;
51616;SDS011;37697;52.588;13.394;2023-03-25T09:55:31;2.10;;;0.80;;
51616;SDS011;37697;52.588;13.394;2023-03-25T10:00:40;5.10;;;2.60;;
51616;SDS011;37697;52.588;13.394;2023-03-25T10:05:55;2.50;;;0.80;;
51616;SDS011;37697;52.588;13.394;2023-03-25T10:11:18;4.80;;;1.10;;
51616;SDS011;37697;52.588;13.394;2023-03-25T10:16:38;1.00;;;0.70;;
51616;SDS011;37697;52.588;13.394;2023-03-25T10:21:53;1.00;;;0.70;;
51616;SDS011;37697;52.588;13.394;2023-03-25T10:27:02;2.30;;;0.80;;
51616;SDS011;37697;52.588;13.394;2023-03-25T10:32:15;2.70;;;0.70;;
51616;SDS011;37697;52.588;13.394;2023-03-25T10:37:34;2.00;;;0.70;;
51616;SDS011;37697;52.588;13.394;2023-03-25T10:42:47;1.50;;;0.60;;
51616;SDS011;37697;52.588;13.394;2023-03-25T10:48:03;1.30;;;0.50;;
51616;SDS011;37697;52.588;13.394;2023-03-25T10:53:17;2.20;;;0.60;;
51616;SDS011;37697;52.588;13.394;2023-03-25T10:58:27;1.30;;;0.70;;
51616;SDS011;37697;52.588;13.394;2023-03-25T11:03:33;4.90;;;0.80;;
51616;SDS011;37697;52.588;13.394;2023-03-25T11:08:47;2.60;;;1.20;;
51616;SDS011;37697;52.588;13.394;2023-03-25T11:14:01;1.40;;;0.70;;
51616;SDS011;37697;52.588;13.394;2023-03-25T11:19:11;2.00;;;0.70;;
51616;SDS011;37697;52.588;13.394;2023-03-25T11:24:23;3.20;;;0.70;;
51616;SDS011;37697;52.588;13.394;2023-03-25T11:29:34;1.20;;;0.50;;
51616;SDS011;37697;52.588;13.394;2023-03-25T11:34:40;1.60;;;0.60;;
51616;SDS011;37697;52.588;13.394;2023-03-25T11:39:53;1.60;;;0.60;;
51616;SDS011;37697;52.588;13.394;2023-03-25T11:44:59;3.00;;;0.90;;
51616;SDS011;37697;52.588;13.394;2023-03-25T11:50:16;1.00;;;0.70;;
51616;SDS011;37697;52.588;13.394;2023-03-25T11:55:26;1.90;;;1.00;;
51616;SDS011;37697;52.588;13.394;2023-03-25T12:00:36;2.10;;;0.70;;
51616;SDS011;37697;52.588;13.394;2023-03-25T12:05:43;1.70;;;0.90;;
51616;SDS011;37697;52.588;13.394;2023-03-25T12:11:04;1.50;;;0.90;;
51616;SDS011;37697;52.588;13.394;2023-03-25T12:16:17;1.60;;;0.90;;
51616;SDS011;37697;52.588;13.394;2023-03-25T12:21:35;2.80;;;0.90;;
51616;SDS011;37697;52.588;13.394;2023-03-25T12:27:04;2.10;;;0.70;;
51616;SDS011;37697;52.588;13.394;2023-03-25T12:32:25;2.40;;;0.90;;
51616;SDS011;37697;52.588;13.394;2023-03-25T12:37:40;1.50;;;0.70;;
51616;SDS011;37697;52.588;13.394;2023-03-25T12:42:59;4.70;;;0.90;;
51616;SDS011;37697;52.588;13.394;2023-03-25T12:48:11;3.20;;;1.00;;
51616;SDS011;37697;52.588;13.394;2023-03-25T12:53:33;1.90;;;0.60;;
51616;SDS011;37697;52.588;13.394;2023-03-25T12:58:54;1.30;;;0.50;;
51616;SDS011;37697;52.588;13.394;2023-03-25T13:04:10;1.60;;;0.60;;
51616;SDS011;37697;52.588;13.394;2023-03-25T13:09:28;2.30;;;0.50;;
51616;SDS011;37697;52.588;13.394;2023-03-25T13:14:39;2.50;;;0.80;;
51616;SDS011;37697;52.588;13.394;2023-03-25T13:19:50;3.40;;;1.10;;
51616;SDS011;37697;52.588;13.394;2023-03-25T13:24:59;1.90;;;0.50;;
51616;SDS011;37697;52.588;13.394;2023-03-25T13:30:13;1.00;;;0.50;;
51616;SDS011;37697;52.588;13.394;2023-03-25T13:35:26;0.60;;;0.30;;
51616;SDS011;37697;52.588;13.394;2023-03-25T13:40:42;1.10;;;0.40;;
51616;SDS011;37697;52.588;13.394;2023-03-25T13:45:54;0.60;;;0.40;;
51616;SDS011;37697;52.588;13.394;2023-03-25T13:51:05;1.30;;;0.60;;
51616;SDS011;37697;52.588;13.394;2023-03-25T13:56:30;0.80;;;0.40;;
51616;SDS011;37697;52.588;13.394;2023-03-25T14:07:23;1.80;;;0.50;;
51616;SDS011;37697;52.588;13.394;2023-03-25T14:12:49;0.40;;;0.40;;
51616;SDS011;37697;52.588;13.394;2023-03-25T14:17:59;0.90;;;0.40;;
51616;SDS011;37697;52.588;13.394;2023-03-25T14:23:07;3.50;;;1.00;;
51616;SDS011;37697;52.588;13.394;2023-03-25T14:28:17;0.90;;;0.30;;
51616;SDS011;37697;52.588;13.394;2023-03-25T14:44:43;3.80;;;1.10;;
51616;SDS011;37697;52.588;13.394;2023-03-25T14:49:53;1.80;;;0.60;;
51616;SDS011;37697;52.588;13.394;2023-03-25T14:55:08;1.50;;;0.70;;
51616;SDS011;37697;52.588;13.394;2023-03-25T15:00:21;0.70;;;0.60;;
51616;SDS011;37697;52.588;13.394;2023-03-25T15:05:32;2.60;;;0.70;;
51616;SDS011;37697;52.588;13.394;2023-03-25T15:10:41;1.60;;;0.80;;
51616;SDS011;37697;52.588;13.394;2023-03-25T15:15:53;1.10;;;0.70;;
51616;SDS011;37697;52.588;13.394;2023-03-25T15:21:04;1.60;;;0.80;;
51616;SDS011;37697;52.588;13.394;2023-03-25T15:31:39;4.70;;;0.90;;
51616;SDS011;37697;52.588;13.394;2023-03-25T15:37:00;1.60;;;0.70;;
51616;SDS011;37697;52.588;13.394;2023-03-25T15:47:38;2.10;;;0.80;;
51616;SDS011;37697;52.588;13.394;2023-03-25T15:52:55;2.70;;;1.50;;
51616;SDS011;37697;52.588;13.394;2023-03-25T15:58:45;3.20;;;1.10;;
51616;SDS011;37697;52.588;13.394;2023-03-25T16:09:02;3.40;;;0.80;;
51616;SDS011;37697;52.588;13.394;2023-03-25T16:14:11;4.20;;;1.30;;
51616;SDS011;37697;52.588;13.394;2023-03-25T16:19:20;3.20;;;1.10;;
51616;SDS011;37697;52.588;13.394;2023-03-25T16:24:28;2.10;;;1.00;;
51616;SDS011;37697;52.588;13.394;2023-03-25T16:29:37;1.20;;;0.70;;
51616;SDS011;37697;52.588;13.394;2023-03-25T16:34:42;2.00;;;0.80;;
51616;SDS011;37697;52.588;13.394;2023-03-25T16:39:53;3.30;;;1.10;;
51616;SDS011;37697;52.588;13.394;2023-03-25T16:45:00;3.50;;;1.30;;
51616;SDS011;37697;52.588;13.394;2023-03-25T16:50:11;5.50;;;1.70;;
51616;SDS011;37697;52.588;13.394;2023-03-25T16:55:32;3.60;;;1.60;;
51616;SDS011;37697;52.588;13.394;2023-03-25T17:00:50;2.00;;;1.10;;
51616;SDS011;37697;52.588;13.394;2023-03-25T17:06:00;3.10;;;1.20;;
51616;SDS011;37697;52.588;13.394;2023-03-25T17:11:11;2.40;;;1.00;;
51616;SDS011;37697;52.588;13.394;2023-03-25T17:16:18;2.50;;;0.90;;
51616;SDS011;37697;52.588;13.394;2023-03-25T17:21:25;2.80;;;1.40;;
51616;SDS011;37697;52.588;13.394;2023-03-25T17:26:33;3.30;;;1.50;;
51616;SDS011;37697;52.588;13.394;2023-03-25T17:32:00;4.00;;;1.40;;
51616;SDS011;37697;52.588;13.394;2023-03-25T17:37:09;2.90;;;1.30;;
51616;SDS011;37697;52.588;13.394;2023-03-25T17:42:20;3.40;;;1.30;;
51616;SDS011;37697;52.588;13.394;2023-03-25T17:52:32;3.90;;;1.30;;
51616;SDS011;37697;52.588;13.394;2023-03-25T17:57:39;3.70;;;1.50;;
51616;SDS011;37697;52.588;13.394;2023-03-25T18:02:44;2.70;;;1.30;;
51616;SDS011;37697;52.588;13.394;2023-03-25T18:07:50;4.00;;;1.50;;
51616;SDS011;37697;52.588;13.394;2023-03-25T18:12:56;3.60;;;1.80;;
51616;SDS011;37697;52.588;13.394;2023-03-25T18:18:01;5.30;;;1.90;;
51616;SDS011;37697;52.588;13.394;2023-03-25T18:23:07;5.10;;;2.60;;
51616;SDS011;37697;52.588;13.394;2023-03-25T18:28:13;6.10;;;2.80;;
51616;SDS011;37697;52.588;13.394;2023-03-25T18:33:19;6.10;;;2.70;;
51616;SDS011;37697;52.588;13.394;2023-03-25T18:38:26;4.90;;;2.10;;
51616;SDS011;37697;52.588;13.394;2023-03-25T18:43:31;4.00;;;1.60;;
51616;SDS011;37697;52.588;13.394;2023-03-25T18:48:37;3.90;;;2.00;;
51616;SDS011;37697;52.588;13.394;2023-03-25T18:53:42;6.00;;;2.20;;
51616;SDS011;37697;52.588;13.394;2023-03-25T18:58:50;5.20;;;2.30;;
51616;SDS011;37697;52.588;13.394;2023-03-25T19:03:55;4.40;;;1.70;;
51616;SDS011;37697;52.588;13.394;2023-03-25T19:09:05;5.60;;;3.00;;
51616;SDS011;37697;52.588;13.394;2023-03-25T19:14:18;3.90;;;1.30;;
51616;SDS011;37697;52.588;13.394;2023-03-25T19:19:23;5.80;;;1.60;;
51616;SDS011;37697;52.588;13.394;2023-03-25T19:24:31;2.70;;;1.50;;
51616;SDS011;37697;52.588;13.394;2023-03-25T19:29:36;3.70;;;1.50;;
51616;SDS011;37697;52.588;13.394;2023-03-25T19:34:42;3.20;;;1.10;;
51616;SDS011;37697;52.588;13.394;2023-03-25T19:39:49;2.40;;;0.80;;
51616;SDS011;37697;52.588;13.394;2023-03-25T19:44:54;2.40;;;0.70;;
51616;SDS011;37697;52.588;13.394;2023-03-25T19:50:01;1.20;;;0.60;;
51616;SDS011;37697;52.588;13.394;2023-03-25T19:55:08;2.50;;;0.70;;
51616;SDS011;37697;52.588;13.394;2023-03-25T20:00:15;2.10;;;0.60;;
51616;SDS011;37697;52.588;13.394;2023-03-25T20:05:23;2.00;;;0.70;;
51616;SDS011;37697;52.588;13.394;2023-03-25T20:10:29;3.40;;;0.80;;
51616;SDS011;37697;52.588;13.394;2023-03-25T20:15:35;3.10;;;1.00;;
51616;SDS011;37697;52.588;13.394;2023-03-25T20:20:41;4.40;;;0.80;;
51616;SDS011;37697;52.588;13.394;2023-03-25T20:25:48;1.80;;;0.50;;
51616;SDS011;37697;52.588;13.394;2023-03-25T20:30:54;2.30;;;0.70;;
51616;SDS011;37697;52.588;13.394;2023-03-25T20:35:59;1.10;;;0.60;;
51616;SDS011;37697;52.588;13.394;2023-03-25T20:41:05;2.00;;;0.70;;
51616;SDS011;37697;52.588;13.394;2023-03-25T20:46:11;1.30;;;0.60;;
51616;SDS011;37697;52.588;13.394;2023-03-25T20:51:18;1.00;;;0.70;;
51616;SDS011;37697;52.588;13.394;2023-03-25T20:56:23;1.50;;;0.70;;
51616;SDS011;37697;52.588;13.394;2023-03-25T21:01:29;4.50;;;0.90;;
51616;SDS011;37697;52.588;13.394;2023-03-25T21:06:38;2.50;;;0.90;;
51616;SDS011;37697;52.588;13.394;2023-03-25T21:11:44;1.80;;;0.70;;
51616;SDS011;37697;52.588;13.394;2023-03-25T21:16:51;2.80;;;0.60;;
51616;SDS011;37697;52.588;13.394;2023-03-25T21:21:57;2.80;;;0.80;;
51616;SDS011;37697;52.588;13.394;2023-03-25T21:27:02;2.90;;;1.00;;
51616;SDS011;37697;52.588;13.394;2023-03-25T21:32:08;1.70;;;0.90;;
51616;SDS011;37697;52.588;13.394;2023-03-25T21:37:14;6.40;;;0.90;;
51616;SDS011;37697;52.588;13.394;2023-03-25T21:42:19;1.90;;;1.00;;
51616;SDS011;37697;52.588;13.394;2023-03-25T21:47:24;2.60;;;1.10;;
51616;SDS011;37697;52.588;13.394;2023-03-25T21:52:30;1.60;;;1.00;;
51616;SDS011;37697;52.588;13.394;2023-03-25T21:57:36;2.50;;;1.20;;
51616;SDS011;37697;52.588;13.394;2023-03-25T22:02:43;2.90;;;1.20;;
51616;SDS011;37697;52.588;13.394;2023-03-25T22:07:50;2.90;;;1.00;;
51616;SDS011;37697;52.588;13.394;2023-03-25T22:12:55;2.50;;;1.00;;
51616;SDS011;37697;52.588;13.394;2023-03-25T22:18:00;2.90;;;1.40;;
51616;SDS011;37697;52.588;13.394;2023-03-25T22:23:06;2.50;;;1.20;;
51616;SDS011;37697;52.588;13.394;2023-03-25T22:28:15;3.30;;;1.10;;
51616;SDS011;37697;52.588;13.394;2023-03-25T22:33:20;3.50;;;1.10;;
51616;SDS011;37697;52.588;13.394;2023-03-25T22:38:26;3.90;;;1.20;;
51616;SDS011;37697;52.588;13.394;2023-03-25T22:43:31;2.10;;;1.10;;
51616;SDS011;37697;52.588;13.394;2023-03-25T22:48:37;4.60;;;1.50;;
51616;SDS011;37697;52.588;13.394;2023-03-25T22:53:44;2.20;;;1.20;;
51616;SDS011;37697;52.588;13.394;2023-03-25T22:58:52;2.30;;;1.40;;
51616;SDS011;37697;52.588;13.394;2023-03-25T23:03:57;3.60;;;1.40;;
51616;SDS011;37697;52.588;13.394;2023-03-25T23:09:04;4.20;;;1.70;;
51616;SDS011;37697;52.588;13.394;2023-03-25T23:14:11;5.60;;;1.60;;
51616;SDS011;37697;52.588;13.394;2023-03-25T23:19:16;3.70;;;1.60;;
51616;SDS011;37697;52.588;13.394;2023-03-25T23:24:22;3.00;;;1.60;;
51616;SDS011;37697;52.588;13.394;2023-03-25T23:29:27;2.90;;;1.20;;
51616;SDS011;37697;52.588;13.394;2023-03-25T23:34:33;7.80;;;2.00;;
51616;SDS011;37697;52.588;13.394;2023-03-25T23:39:39;3.60;;;1.40;;
51616;SDS011;37697;52.588;13.394;2023-03-25T23:44:44;4.00;;;1.50;;
51616;SDS011;37697;52.588;13.394;2023-03-25T23:49:51;2.10;;;1.30;;
51616;SDS011;37697;52.588;13.394;2023-03-25T23:55:00;2.80;;;1.50;;
